Locharbriggs, United Kingdom
Current Conditions -  °F | °C
As of 6:50 AM on Friday 19 Dec 2014 (Local Time) from EGOM Reporting Station
Broken Clouds Broken Clouds  
Wind Chill: 28°   Ceiling: 1900
Heat Index: 39°   Visibility: 6mi
Dew Point: 36°   Wind: 24mph
Humidity: 87%   Direction: 250°WSW
Pressure: 29.56"   Gusts: 37mph
Location:  55.1°N, 3.58°W
Report Text: EGOM 190650Z AUTO 25021G32KT 9999 BKN019/// 04/02 Q1001 RERA
Loading
Personal Weather Stations






























Interactive Weather Map New forecast layout! Learn more

10-Day Weather Forecast

Advertisements
Track Severe Weather on mobile